Time;durP1;ratioP1;P1;durP2;ratioP2;P2;SDS_P1;SDS_P2;PMS_P1;PMS_P2;Temp;Humidity;BMP_temperature;BMP_pressure;BME280_temperature;BME280_humidity;BME280_pressure;Samples;Min_cycle;Max_cycle;Signal;HPM_P1;HPM_P2
2022/12/22 03:27:40;;;;;;;87.10;42.87;;;6.50;97.50;;;;;;5026537;28;20164;-92
2022/12/22 03:30:06;;;;;;;85.43;42.17;;;6.50;97.50;;;;;;5025245;28;20671;-92
2022/12/22 03:32:32;;;;;;;84.83;42.70;;;6.50;97.50;;;;;;5025537;28;20180;-93
2022/12/22 03:34:57;;;;;;;81.77;41.87;;;6.60;97.50;;;;;;5026800;28;20231;-92
2022/12/22 03:37:23;;;;;;;84.83;43.77;;;6.60;97.50;;;;;;5025654;28;20244;-92
2022/12/22 03:39:48;;;;;;;90.67;43.10;;;6.50;97.50;;;;;;5025722;28;20216;-92
2022/12/22 03:47:42;;;;;;;85.07;41.67;;;6.50;97.50;;;;;;5025109;28;20164;-92
2022/12/22 03:50:08;;;;;;;81.30;41.17;;;6.50;97.50;;;;;;5024544;28;20245;-92
2022/12/22 03:52:33;;;;;;;89.13;43.83;;;6.50;97.50;;;;;;5026541;28;20184;-92
2022/12/22 03:54:59;;;;;;;83.53;38.50;;;6.50;97.50;;;;;;5025878;28;20209;-92
2022/12/22 03:57:24;;;;;;;87.50;43.93;;;6.60;97.60;;;;;;5025348;28;20228;-92
2022/12/22 03:59:50;;;;;;;91.73;44.40;;;6.60;97.60;;;;;;5026071;28;20192;-93
2022/12/22 04:02:15;;;;;;;87.23;43.77;;;6.70;97.60;;;;;;5033326;28;20185;-93
2022/12/22 04:04:41;;;;;;;89.50;42.73;;;6.70;97.60;;;;;;5034922;28;20201;-92
2022/12/22 04:07:06;;;;;;;91.03;43.73;;;6.60;97.50;;;;;;5035646;28;20230;-93
2022/12/22 04:09:33;;;;;;;92.83;45.03;;;6.50;97.50;;;;;;5034089;28;20177;-93
2022/12/22 04:14:42;;;;;;;90.37;43.80;;;6.60;97.60;;;;;;5035654;28;20208;-93
2022/12/22 04:17:08;;;;;;;89.87;45.13;;;6.50;97.50;;;;;;5036083;28;20177;-92
2022/12/22 04:19:34;;;;;;;91.37;44.10;;;6.50;97.50;;;;;;5037917;28;20607;-93
2022/12/22 04:22:00;;;;;;;89.03;44.63;;;6.50;97.50;;;;;;5036526;28;20177;-93
2022/12/22 04:24:26;;;;;;;92.27;46.60;;;6.50;97.60;;;;;;5035148;28;20205;-93
2022/12/22 04:26:52;;;;;;;89.13;43.33;;;6.50;97.60;;;;;;5032654;28;20192;-93
2022/12/22 04:29:17;;;;;;;102.97;46.60;;;6.50;97.60;;;;;;5033878;28;20201;-92
2022/12/22 04:31:43;;;;;;;89.77;45.03;;;6.60;97.60;;;;;;5033721;28;20181;-93
2022/12/22 04:34:09;;;;;;;97.57;46.13;;;6.60;97.60;;;;;;5034516;28;20205;-92
2022/12/22 04:36:34;;;;;;;108.77;47.83;;;6.60;97.60;;;;;;5031786;28;20365;-93
2022/12/22 04:39:00;;;;;;;95.87;45.80;;;6.70;97.60;;;;;;5032421;28;20284;-93
2022/12/22 04:41:25;;;;;;;98.27;46.53;;;6.70;97.60;;;;;;5032520;28;20181;-92
2022/12/22 04:43:51;;;;;;;103.17;46.90;;;6.60;97.60;;;;;;5032269;28;20249;-93
2022/12/22 04:46:16;;;;;;;106.83;45.60;;;6.60;97.60;;;;;;5030841;28;20178;-92
2022/12/22 04:48:42;;;;;;;99.50;46.20;;;6.70;97.60;;;;;;5033916;28;20177;-93
2022/12/22 04:51:08;;;;;;;102.60;47.47;;;6.60;97.60;;;;;;5031371;28;20181;-93
2022/12/22 04:53:34;;;;;;;111.70;47.50;;;6.70;97.60;;;;;;5032214;28;20227;-92
2022/12/22 04:56:03;;;;;;;100.50;46.77;;;6.60;97.60;;;;;;5030439;28;20203;-93
2022/12/22 04:58:30;;;;;;;98.90;47.33;;;6.60;97.60;;;;;;5033277;28;20236;-93
2022/12/22 05:00:56;;;;;;;94.13;46.23;;;6.60;97.60;;;;;;5032101;28;20182;-93
2022/12/22 05:03:22;;;;;;;88.13;43.70;;;6.60;97.60;;;;;;5031701;28;20184;-92
2022/12/22 05:05:49;;;;;;;94.90;46.80;;;6.60;97.60;;;;;;5032786;28;20205;-92
2022/12/22 05:08:14;;;;;;;95.47;44.87;;;6.70;97.60;;;;;;5035193;28;20247;-93
2022/12/22 05:10:40;;;;;;;92.47;44.63;;;6.70;97.60;;;;;;5035084;28;20284;-93
2022/12/22 05:13:05;;;;;;;87.70;44.10;;;6.70;97.60;;;;;;5027955;28;20211;-93
2022/12/22 05:15:33;;;;;;;97.07;46.87;;;6.70;97.60;;;;;;5032313;28;20204;-93
2022/12/22 05:18:00;;;;;;;87.97;43.07;;;6.80;97.60;;;;;;5030385;28;20214;-93
2022/12/22 05:20:26;;;;;;;94.30;44.07;;;6.80;97.60;;;;;;5026994;28;20244;-92
2022/12/22 05:22:51;;;;;;;99.80;43.67;;;6.80;97.60;;;;;;5029332;28;20184;-93
2022/12/22 05:25:21;;;;;;;88.93;44.53;;;6.80;97.70;;;;;;5033659;28;20273;-93
2022/12/22 05:27:48;;;;;;;92.57;42.57;;;6.80;97.70;;;;;;5026269;28;20173;-92
2022/12/22 05:30:17;;;;;;;92.37;43.30;;;6.80;97.70;;;;;;5025101;28;20177;-92
2022/12/22 05:32:43;;;;;;;94.97;44.00;;;6.70;97.60;;;;;;5025540;28;20228;-92
2022/12/22 05:35:09;;;;;;;92.17;44.50;;;6.70;97.70;;;;;;5024971;28;20205;-92
2022/12/22 05:37:35;;;;;;;98.30;43.90;;;6.70;97.70;;;;;;5024181;28;20181;-92
2022/12/22 05:40:01;;;;;;;103.57;46.53;;;6.70;97.70;;;;;;5024814;28;20197;-92
2022/12/22 05:42:35;;;;;;;99.87;45.23;;;6.70;97.70;;;;;;5025359;28;20196;-92
2022/12/22 05:45:05;;;;;;;103.00;45.63;;;6.70;97.60;;;;;;5023843;28;20213;-92
2022/12/22 05:47:30;;;;;;;108.83;47.73;;;6.60;97.70;;;;;;5025002;28;20204;-92
2022/12/22 05:49:56;;;;;;;101.27;46.53;;;6.60;97.70;;;;;;5025087;28;20173;-93
2022/12/22 05:52:21;;;;;;;106.00;46.93;;;6.70;97.70;;;;;;5025250;28;20177;-92
2022/12/22 05:54:47;;;;;;;114.87;47.57;;;6.70;97.70;;;;;;5024178;28;20220;-93
2022/12/22 05:57:13;;;;;;;122.03;49.40;;;6.70;97.70;;;;;;5026755;28;20196;-92
2022/12/22 05:59:38;;;;;;;115.90;47.90;;;6.70;97.70;;;;;;5027009;28;20204;-93
2022/12/22 06:02:04;;;;;;;130.00;50.57;;;6.80;97.70;;;;;;5026821;28;20173;-92
2022/12/22 06:04:29;;;;;;;118.40;48.17;;;6.70;97.70;;;;;;5024913;28;20213;-93
2022/12/22 06:06:55;;;;;;;120.13;49.77;;;6.80;97.70;;;;;;5028153;28;20177;-93
2022/12/22 06:09:20;;;;;;;127.47;50.23;;;6.80;97.70;;;;;;5025319;28;20187;-92
2022/12/22 06:11:46;;;;;;;130.73;50.30;;;6.80;97.70;;;;;;5026420;28;20632;-92
2022/12/22 06:14:11;;;;;;;128.03;51.83;;;6.80;97.70;;;;;;5026077;28;20682;-93
2022/12/22 06:16:37;;;;;;;131.20;53.03;;;6.90;97.70;;;;;;5028731;28;20185;-92
2022/12/22 06:19:02;;;;;;;136.27;52.83;;;6.90;97.70;;;;;;5030582;28;20184;-92
2022/12/22 06:21:28;;;;;;;142.50;54.50;;;6.90;97.80;;;;;;5031823;28;20177;-92
2022/12/22 06:23:54;;;;;;;138.17;53.23;;;6.90;97.70;;;;;;5031476;28;20185;-92
2022/12/22 06:26:20;;;;;;;128.30;50.90;;;6.90;97.80;;;;;;5029286;28;20169;-92
2022/12/22 06:28:46;;;;;;;130.93;50.10;;;6.90;97.80;;;;;;5027000;28;20223;-92
2022/12/22 06:31:12;;;;;;;141.77;53.50;;;6.90;97.70;;;;;;5026461;28;20177;-92
2022/12/22 06:33:37;;;;;;;137.40;53.93;;;6.90;97.70;;;;;;5027119;28;20238;-92
2022/12/22 06:36:07;;;;;;;133.07;49.87;;;6.90;97.70;;;;;;5027069;28;20188;-92
2022/12/22 06:38:33;;;;;;;139.37;54.33;;;7.00;97.80;;;;;;5027674;28;20185;-93
2022/12/22 06:40:58;;;;;;;142.37;55.37;;;6.90;97.80;;;;;;5026117;28;20185;-92
2022/12/22 06:43:24;;;;;;;138.57;53.13;;;7.00;97.80;;;;;;5027317;28;20248;-92
2022/12/22 06:45:51;;;;;;;150.53;56.80;;;6.90;97.80;;;;;;5029230;28;20209;-92
2022/12/22 06:48:17;;;;;;;139.70;53.67;;;6.90;97.70;;;;;;5027464;28;20185;-92
2022/12/22 06:50:42;;;;;;;134.87;53.73;;;6.90;97.80;;;;;;5027289;28;20256;-92
2022/12/22 06:53:08;;;;;;;144.63;53.73;;;7.00;97.80;;;;;;5027381;28;20189;-92
2022/12/22 06:55:35;;;;;;;137.53;53.67;;;7.00;97.80;;;;;;5027371;28;20239;-93
2022/12/22 06:58:01;;;;;;;141.00;52.17;;;7.00;97.80;;;;;;5030261;28;20188;-92
2022/12/22 07:00:26;;;;;;;142.60;53.30;;;6.90;97.80;;;;;;5032381;28;20174;-92
2022/12/22 07:02:52;;;;;;;145.90;53.90;;;7.00;97.80;;;;;;5033715;28;20195;-93
2022/12/22 07:05:17;;;;;;;150.43;55.67;;;6.90;97.80;;;;;;5021372;28;20274;-91
2022/12/22 07:07:43;;;;;;;143.63;54.87;;;6.90;97.80;;;;;;5035590;28;20189;-92
2022/12/22 07:10:09;;;;;;;131.43;52.77;;;6.90;97.80;;;;;;5034776;28;20188;-93
2022/12/22 07:12:35;;;;;;;134.37;52.43;;;6.80;97.80;;;;;;5033522;28;20308;-93
2022/12/22 07:15:00;;;;;;;144.13;52.17;;;6.90;97.80;;;;;;5031229;28;20201;-93
2022/12/22 07:17:26;;;;;;;151.47;54.40;;;6.80;97.80;;;;;;5033822;28;20172;-92
2022/12/22 07:19:51;;;;;;;136.87;53.07;;;6.80;97.80;;;;;;5032113;28;20169;-93
2022/12/22 07:22:17;;;;;;;153.43;53.60;;;6.80;97.80;;;;;;5033144;28;20241;-92
2022/12/22 07:24:42;;;;;;;138.67;53.90;;;6.90;97.80;;;;;;5033187;28;20209;-93
2022/12/22 07:27:09;;;;;;;139.40;54.43;;;6.80;97.80;;;;;;5032810;28;20196;-93
2022/12/22 07:29:35;;;;;;;138.17;54.20;;;6.90;97.80;;;;;;5033535;28;20173;-93
2022/12/22 07:32:01;;;;;;;141.33;55.50;;;6.90;97.80;;;;;;5034960;28;20170;-93
2022/12/22 07:34:27;;;;;;;130.40;50.97;;;6.90;97.80;;;;;;5036025;28;20228;-93
2022/12/22 07:36:52;;;;;;;132.13;50.47;;;6.90;97.80;;;;;;5036243;28;20170;-93
2022/12/22 07:39:18;;;;;;;138.43;51.73;;;6.90;97.80;;;;;;5037246;28;20240;-92
2022/12/22 07:44:28;;;;;;;136.87;53.07;;;6.90;97.80;;;;;;5039599;28;20231;-93
2022/12/22 07:46:53;;;;;;;126.27;51.93;;;6.90;97.80;;;;;;5040031;28;20169;-92
2022/12/22 07:52:03;;;;;;;150.30;56.10;;;6.90;97.80;;;;;;5039863;28;20153;-93
2022/12/22 07:54:29;;;;;;;136.50;53.67;;;6.90;97.80;;;;;;5038367;28;20205;-93
2022/12/22 07:56:55;;;;;;;143.43;55.77;;;7.00;97.80;;;;;;5038851;28;20192;-93
2022/12/22 07:59:20;;;;;;;134.67;53.23;;;7.00;97.80;;;;;;5038876;28;20181;-93
2022/12/22 08:01:46;;;;;;;139.57;55.40;;;7.00;97.80;;;;;;5040042;28;20161;-93
2022/12/22 08:04:13;;;;;;;135.00;54.17;;;6.90;97.80;;;;;;5038686;28;20216;-93
2022/12/22 08:06:39;;;;;;;143.40;54.17;;;6.90;97.80;;;;;;5040018;28;20204;-93
2022/12/22 08:09:06;;;;;;;133.33;48.93;;;6.90;97.80;;;;;;5040791;28;20177;-93
2022/12/22 08:11:32;;;;;;;129.03;50.30;;;6.80;97.80;;;;;;5065459;22;20223;-91
2022/12/22 08:13:58;;;;;;;149.33;53.57;;;6.90;97.80;;;;;;5040494;28;20324;-92
2022/12/22 08:16:33;;;;;;;131.90;50.70;;;6.90;97.80;;;;;;5125587;22;20699;-93
2022/12/22 08:18:59;;;;;;;136.20;49.23;;;6.90;97.80;;;;;;5121256;22;20213;-91
2022/12/22 08:21:24;;;;;;;158.87;50.80;;;6.90;97.80;;;;;;5037514;28;20268;-92
2022/12/22 08:23:50;;;;;;;138.13;48.60;;;6.80;97.80;;;;;;5034324;28;20192;-92
2022/12/22 08:26:40;;;;;;;131.23;48.57;;;6.80;97.80;;;;;;5037646;28;20185;-91
2022/12/22 08:29:22;;;;;;;139.07;49.27;;;6.80;97.80;;;;;;5039175;28;20172;-92
2022/12/22 08:31:48;;;;;;;141.63;50.07;;;6.90;97.80;;;;;;5039399;28;20181;-93
2022/12/22 08:34:15;;;;;;;131.23;46.33;;;6.80;97.80;;;;;;5040025;28;20205;-93
2022/12/22 08:36:49;;;;;;;141.83;48.47;;;6.80;97.80;;;;;;5037983;28;20552;-93
2022/12/22 08:39:29;;;;;;;140.63;45.90;;;6.80;97.80;;;;;;5037034;28;20177;-90
2022/12/22 08:55:06;;;;;;;112.87;40.20;;;7.10;97.90;;;;;;3304569;26;20231;-92
2022/12/22 08:57:32;;;;;;;96.07;38.27;;;7.00;97.80;;;;;;5018437;28;20245;-92
2022/12/22 09:00:08;;;;;;;103.97;40.60;;;7.00;97.80;;;;;;5019378;28;20185;-93
2022/12/22 09:02:40;;;;;;;110.50;41.77;;;7.10;97.90;;;;;;5003713;28;20170;-93
2022/12/22 09:05:06;;;;;;;102.47;38.97;;;7.10;97.80;;;;;;5008925;28;20217;-92
2022/12/22 09:07:32;;;;;;;89.97;36.10;;;7.10;97.80;;;;;;5010120;28;20185;-92
2022/12/22 09:09:57;;;;;;;91.43;37.40;;;7.10;97.90;;;;;;5013369;28;20173;-92
2022/12/22 09:12:23;;;;;;;96.83;38.10;;;7.10;97.80;;;;;;5015841;28;20220;-93
2022/12/22 09:15:13;;;;;;;;;;;;;;;;;;;;;
2022/12/22 09:17:40;;;;;;;91.33;37.30;;;7.10;97.80;;;;;;5031138;28;20196;-93
2022/12/22 09:20:18;;;;;;;89.77;36.73;;;7.10;97.80;;;;;;5010071;28;20177;-93
2022/12/22 09:22:54;;;;;;;87.47;36.57;;;7.00;97.80;;;;;;5014232;28;20188;-92
2022/12/22 09:25:23;;;;;;;88.67;36.63;;;7.00;97.80;;;;;;5015011;28;20284;-92
2022/12/22 09:27:49;;;;;;;98.53;36.97;;;7.00;97.80;;;;;;5015308;28;20170;-92
2022/12/22 09:30:26;;;;;;;86.80;36.07;;;7.00;97.80;;;;;;5013853;28;20177;-93
2022/12/22 09:33:09;;;;;;;98.90;38.03;;;7.10;97.80;;;;;;5015921;28;20208;-92
2022/12/22 09:35:51;;;;;;;107.53;39.57;;;7.20;97.90;;;;;;5015969;28;20204;-92
2022/12/22 09:38:45;;;;;;;101.47;37.23;;;7.20;97.90;;;;;;5018710;28;20177;-93
2022/12/22 09:41:44;;;;;;;111.90;40.27;;;7.30;97.90;;;;;;5016833;28;20245;-92
2022/12/22 09:44:19;;;;;;;112.77;39.47;;;7.30;97.90;;;;;;5015871;28;20223;-93
2022/12/22 09:46:45;;;;;;;104.50;39.30;;;7.30;97.90;;;;;;5012930;28;20169;-93
2022/12/22 09:49:18;;;;;;;111.73;40.50;;;7.30;97.90;;;;;;5008831;28;20228;-93
2022/12/22 09:51:52;;;;;;;110.33;39.07;;;7.30;97.90;;;;;;5008787;28;20161;-92
2022/12/22 09:54:25;;;;;;;117.20;40.83;;;7.40;97.90;;;;;;5106675;23;20233;-92
2022/12/22 09:56:51;;;;;;;109.33;38.07;;;7.40;97.90;;;;;;5058758;22;20233;-92
2022/12/22 09:59:20;;;;;;;105.10;40.20;;;7.50;97.90;;;;;;5003536;28;20631;-91
2022/12/22 10:02:30;;;;;;;118.00;41.80;;;7.50;97.90;;;;;;5011639;28;20193;-93
2022/12/22 10:05:05;;;;;;;124.83;42.60;;;7.70;97.90;;;;;;5012541;28;20196;-92
2022/12/22 10:07:46;;;;;;;116.97;41.60;;;7.80;97.90;;;;;;5009650;28;20200;-93
2022/12/22 10:10:36;;;;;;;120.63;40.90;;;7.90;97.90;;;;;;5008466;28;20226;-92
2022/12/22 10:13:03;;;;;;;123.90;43.73;;;7.90;97.90;;;;;;5008009;28;20193;-92
2022/12/22 10:15:44;;;;;;;124.77;43.63;;;8.00;97.90;;;;;;5013560;28;20251;-92
2022/12/22 10:18:43;;;;;;;132.27;44.53;;;8.20;98.00;;;;;;5016856;28;20177;-93
2022/12/22 10:22:40;;;;;;;137.00;46.90;;;8.20;97.90;;;;;;4976722;28;20190;-92
2022/12/22 10:35:10;;;;;;;134.57;46.63;;;8.40;97.90;;;;;;3206495;22;20236;-92
2022/12/22 10:37:47;;;;;;;124.70;45.87;;;8.30;97.90;;;;;;5033394;28;20182;-91
2022/12/22 10:47:57;;;;;;;125.97;45.20;;;7.90;97.80;;;;;;5050940;28;20243;-93
2022/12/22 10:50:23;;;;;;;129.67;46.30;;;7.80;97.80;;;;;;5034924;28;20272;-92
2022/12/22 10:53:13;;;;;;;132.00;44.70;;;7.80;97.80;;;;;;5030064;28;20161;-92
2022/12/22 10:58:22;;;;;;;100.47;34.97;;;7.90;97.80;;;;;;5051100;22;20220;-93
2022/12/22 11:01:09;;;;;;;89.87;36.83;;;7.80;97.80;;;;;;5036291;28;20176;-91
2022/12/22 11:03:34;;;;;;;88.90;34.60;;;7.70;97.70;;;;;;5037026;28;20161;-94
2022/12/22 11:06:00;;;;;;;80.60;35.10;;;7.70;97.70;;;;;;5033001;28;20227;-92
2022/12/22 11:19:11;;;;;;;71.53;34.67;;;8.20;97.70;;;;;;5003314;28;20217;-92
2022/12/22 11:22:03;;;;;;;67.40;33.80;;;8.20;97.70;;;;;;5031699;28;20233;-92
2022/12/22 11:29:52;;;;;;;70.17;33.03;;;7.80;97.50;;;;;;5359311;23;20237;-92
2022/12/22 11:46:31;;;;;;;56.63;31.13;;;7.80;97.30;;;;;;5034568;28;20248;-92
2022/12/22 11:49:09;;;;;;;59.50;29.57;;;7.70;97.20;;;;;;5018711;28;20203;-91
2022/12/22 11:51:53;;;;;;;52.93;30.87;;;7.70;97.20;;;;;;5018867;28;20655;-91
2022/12/22 11:54:43;;;;;;;46.60;28.70;;;7.60;97.10;;;;;;5012442;28;20197;-89
2022/12/22 11:57:32;;;;;;;45.97;29.73;;;7.40;97.00;;;;;;5000007;28;20165;-91
2022/12/22 12:00:13;;;;;;;46.77;29.00;;;7.40;97.00;;;;;;5001715;28;20165;-92
2022/12/22 12:03:14;;;;;;;44.00;28.77;;;7.40;96.90;;;;;;4999939;28;20177;-92
2022/12/22 12:06:02;;;;;;;42.67;28.00;;;7.40;96.90;;;;;;5000046;28;20698;-92
2022/12/22 12:08:39;;;;;;;41.47;30.00;;;7.60;96.80;;;;;;4999837;28;20173;-91
2022/12/22 12:11:36;;;;;;;44.30;31.43;;;7.80;96.70;;;;;;4999754;28;20682;-89
2022/12/22 12:14:21;;;;;;;49.47;30.87;;;7.90;96.50;;;;;;5001278;28;20193;-93
2022/12/22 12:16:56;;;;;;;48.90;31.10;;;8.00;96.20;;;;;;5009365;28;20184;-92
2022/12/22 12:19:33;;;;;;;39.03;30.03;;;8.20;96.10;;;;;;4999856;28;20183;-92
2022/12/22 12:22:12;;;;;;;42.43;28.73;;;8.00;95.30;;;;;;4999048;28;20205;-92
2022/12/22 12:24:52;;;;;;;47.57;30.87;;;8.10;94.90;;;;;;4999174;28;20201;-92
2022/12/22 12:28:01;;;;;;;41.27;31.27;;;8.10;94.10;;;;;;4998956;28;20168;-91
2022/12/22 12:30:34;;;;;;;35.40;27.93;;;8.10;93.70;;;;;;5016128;28;20587;-92
2022/12/22 12:33:13;;;;;;;45.63;31.07;;;8.00;93.00;;;;;;4999670;28;20166;-92
2022/12/22 12:35:47;;;;;;;39.23;31.47;;;8.00;93.00;;;;;;4999970;28;20328;-92
2022/12/22 12:38:37;;;;;;;37.97;30.03;;;8.10;93.10;;;;;;4999630;28;20678;-92
2022/12/22 12:41:22;;;;;;;39.73;28.33;;;8.00;92.80;;;;;;4999584;28;20174;-92
2022/12/22 12:43:51;;;;;;;40.60;29.47;;;7.90;92.50;;;;;;4999611;28;20260;-92
2022/12/22 12:46:44;;;;;;;40.23;29.30;;;8.00;92.70;;;;;;4999523;28;20193;-92
2022/12/22 12:49:35;;;;;;;36.77;27.63;;;8.20;92.90;;;;;;5016137;28;20255;-92
2022/12/22 12:52:08;;;;;;;41.13;26.80;;;8.30;92.60;;;;;;4998831;28;20180;-92
2022/12/22 12:54:39;;;;;;;35.87;25.60;;;8.20;92.00;;;;;;4998803;28;20208;-92
2022/12/22 12:57:24;;;;;;;39.43;27.20;;;8.30;92.10;;;;;;4999092;28;20184;-92
2022/12/22 12:59:52;;;;;;;39.07;26.47;;;8.00;91.90;;;;;;4998829;28;20185;-92
2022/12/22 13:02:38;;;;;;;36.57;25.23;;;8.10;92.10;;;;;;4998489;28;20658;-92
2022/12/22 13:05:26;;;;;;;39.10;24.43;;;8.20;92.10;;;;;;4999410;28;20216;-92
2022/12/22 13:08:19;;;;;;;40.93;26.33;;;8.10;91.90;;;;;;4998162;28;20200;-92
2022/12/22 13:10:53;;;;;;;37.67;25.93;;;8.00;92.10;;;;;;5016778;28;20165;-92
2022/12/22 13:13:22;;;;;;;40.40;25.17;;;7.90;92.10;;;;;;4997991;28;20276;-92
2022/12/22 13:16:00;;;;;;;39.97;26.57;;;7.70;92.20;;;;;;4998234;28;20202;-92
2022/12/22 13:18:28;;;;;;;39.50;25.77;;;7.70;92.40;;;;;;5000152;28;20180;-92
2022/12/22 13:21:01;;;;;;;40.87;23.70;;;7.70;92.50;;;;;;4999354;28;20185;-92
2022/12/22 13:23:35;;;;;;;38.10;25.30;;;7.70;92.50;;;;;;4998014;28;20169;-92
2022/12/22 13:26:08;;;;;;;37.70;25.13;;;7.70;92.70;;;;;;4998775;28;20189;-92
2022/12/22 13:28:36;;;;;;;31.33;22.27;;;7.80;92.70;;;;;;4998175;28;20628;-92
2022/12/22 13:31:25;;;;;;;44.40;24.30;;;7.70;92.70;;;;;;4998822;28;20181;-92
2022/12/22 13:34:19;;;;;;;35.63;23.97;;;7.70;92.60;;;;;;4998533;28;20193;-89
2022/12/22 13:36:47;;;;;;;36.77;23.57;;;7.60;92.50;;;;;;4999012;28;20166;-88
2022/12/22 13:39:14;;;;;;;37.03;24.93;;;7.50;92.60;;;;;;4997574;28;20292;-90
2022/12/22 13:41:48;;;;;;;35.93;25.03;;;7.40;92.70;;;;;;4996493;28;20181;-90
2022/12/22 13:44:18;;;;;;;43.27;25.40;;;7.50;92.90;;;;;;4997054;28;20226;-89
2022/12/22 13:46:43;;;;;;;40.47;24.07;;;7.50;92.90;;;;;;4996998;28;20200;-90
2022/12/22 13:49:15;;;;;;;40.30;24.83;;;7.50;92.90;;;;;;4996795;28;20268;-90
2022/12/22 13:51:41;;;;;;;36.57;23.67;;;7.50;92.80;;;;;;4996920;28;20162;-90
2022/12/22 13:54:18;;;;;;;39.67;25.63;;;7.40;92.80;;;;;;4997788;28;20193;-90
2022/12/22 13:56:50;;;;;;;40.97;25.27;;;7.30;92.80;;;;;;4996930;28;20165;-90
2022/12/22 13:59:26;;;;;;;39.60;23.03;;;7.20;92.80;;;;;;4996656;28;20184;-88
2022/12/22 14:01:58;;;;;;;36.23;23.33;;;7.20;92.80;;;;;;5014189;28;20165;-88
2022/12/22 14:04:25;;;;;;;37.53;22.27;;;7.20;92.70;;;;;;4996911;28;20208;-89
2022/12/22 14:06:50;;;;;;;37.70;22.57;;;7.20;92.80;;;;;;4997153;28;20177;-88
2022/12/22 14:09:26;;;;;;;32.03;21.67;;;7.10;92.70;;;;;;4997005;28;20177;-88
2022/12/22 14:11:56;;;;;;;32.63;20.80;;;7.10;92.80;;;;;;4996600;28;20195;-89
2022/12/22 14:14:28;;;;;;;33.23;20.87;;;7.10;92.70;;;;;;4996450;28;20649;-88
2022/12/22 14:16:57;;;;;;;38.33;22.77;;;7.10;92.70;;;;;;5014176;28;20232;-88
2022/12/22 14:19:25;;;;;;;32.93;22.23;;;7.10;92.60;;;;;;4996887;28;20228;-89
2022/12/22 14:22:01;;;;;;;32.30;20.40;;;7.00;92.50;;;;;;4996510;28;20181;-89
2022/12/22 14:24:30;;;;;;;33.17;21.27;;;7.00;92.60;;;;;;4996413;28;20295;-89
2022/12/22 14:26:55;;;;;;;31.77;20.57;;;7.00;92.60;;;;;;5013926;28;20176;-89
2022/12/22 14:29:26;;;;;;;37.77;20.87;;;6.90;92.50;;;;;;4996500;28;20181;-89
2022/12/22 14:31:57;;;;;;;27.63;21.23;;;6.90;92.50;;;;;;4980275;28;20174;-88
2022/12/22 14:34:28;;;;;;;34.27;20.20;;;6.80;92.40;;;;;;5013933;28;20678;-89
2022/12/22 14:36:54;;;;;;;29.50;20.60;;;6.80;92.50;;;;;;5013589;28;20248;-89
2022/12/22 14:39:23;;;;;;;32.67;19.30;;;6.80;92.60;;;;;;4996080;28;20205;-89
2022/12/22 14:41:52;;;;;;;35.07;19.77;;;6.70;92.30;;;;;;4996127;28;20228;-89
2022/12/22 14:44:25;;;;;;;33.70;20.20;;;6.60;92.40;;;;;;4995764;28;20216;-89
2022/12/22 14:47:13;;;;;;;37.07;20.40;;;6.50;92.40;;;;;;5014528;28;20166;-87
2022/12/22 14:49:48;;;;;;;32.37;21.10;;;6.50;92.40;;;;;;5014710;28;20158;-87
2022/12/22 14:52:27;;;;;;;33.37;20.20;;;6.40;92.30;;;;;;4996914;28;20172;-88
2022/12/22 14:54:54;;;;;;;36.37;19.83;;;6.40;92.40;;;;;;5013968;28;20196;-88
2022/12/22 14:57:29;;;;;;;30.93;19.20;;;6.40;92.40;;;;;;4996217;28;20648;-88
2022/12/22 15:00:01;;;;;;;29.47;18.47;;;6.40;92.30;;;;;;4996799;28;20572;-92
2022/12/22 15:02:36;;;;;;;33.00;19.77;;;6.30;92.30;;;;;;4997358;28;20182;-92
2022/12/22 15:05:40;;;;;;;29.70;17.80;;;6.30;92.30;;;;;;4997065;28;20204;-92
2022/12/22 15:08:39;;;;;;;31.10;18.20;;;6.20;92.20;;;;;;4996003;28;20264;-92
2022/12/22 15:11:23;;;;;;;28.10;18.87;;;6.10;92.20;;;;;;4997542;28;20583;-92
2022/12/22 15:13:50;;;;;;;37.70;17.37;;;6.00;92.10;;;;;;4997490;28;20212;-92
2022/12/22 15:16:21;;;;;;;23.90;17.77;;;6.00;92.10;;;;;;4996913;28;20177;-92
2022/12/22 15:18:47;;;;;;;25.43;17.37;;;6.00;92.10;;;;;;4997455;28;20619;-92
2022/12/22 15:21:15;;;;;;;25.33;17.57;;;5.90;92.10;;;;;;4996367;28;20178;-93
2022/12/22 15:23:41;;;;;;;28.53;17.00;;;5.80;92.00;;;;;;4996401;28;20671;-92
2022/12/22 15:26:07;;;;;;;30.50;19.27;;;5.80;92.10;;;;;;4996833;28;20204;-92
2022/12/22 15:28:33;;;;;;;25.37;16.60;;;5.80;92.00;;;;;;4997261;28;20174;-93
2022/12/22 15:30:59;;;;;;;26.87;18.03;;;5.70;92.10;;;;;;4998241;28;20177;-92
2022/12/22 15:33:25;;;;;;;26.10;18.67;;;5.60;92.10;;;;;;4996464;28;20170;-93
2022/12/22 15:35:51;;;;;;;25.90;17.27;;;5.50;92.10;;;;;;4996440;28;20209;-92
2022/12/22 15:38:19;;;;;;;30.73;18.20;;;5.50;92.20;;;;;;4996749;28;20177;-92
2022/12/22 15:40:45;;;;;;;30.10;18.57;;;5.50;92.30;;;;;;4996893;28;20177;-92
2022/12/22 15:43:11;;;;;;;26.83;18.73;;;5.40;92.50;;;;;;4995980;28;20180;-92
2022/12/22 15:45:38;;;;;;;30.37;18.93;;;5.50;92.80;;;;;;4996052;28;20308;-92
2022/12/22 15:48:05;;;;;;;30.27;19.80;;;5.60;92.80;;;;;;4996211;28;20557;-92
2022/12/22 15:50:35;;;;;;;23.60;17.60;;;5.60;92.90;;;;;;4995868;28;20656;-92
2022/12/22 15:53:02;;;;;;;29.93;18.93;;;5.60;93.00;;;;;;4995645;28;20644;-92
2022/12/22 15:55:28;;;;;;;29.43;18.03;;;5.70;93.00;;;;;;4996578;28;20690;-88
2022/12/22 15:57:56;;;;;;;37.43;18.97;;;5.70;93.00;;;;;;4995890;28;20177;-87
2022/12/22 16:00:22;;;;;;;32.87;18.27;;;5.70;93.00;;;;;;4998348;28;20178;-87
2022/12/22 16:02:47;;;;;;;31.83;18.07;;;5.80;93.00;;;;;;4997795;28;20231;-87
2022/12/22 16:05:14;;;;;;;27.47;17.80;;;5.80;93.00;;;;;;4997532;28;20205;-89
2022/12/22 16:07:40;;;;;;;37.97;17.77;;;5.70;93.00;;;;;;5016285;28;20248;-87
2022/12/22 16:10:19;;;;;;;35.43;18.00;;;5.70;93.10;;;;;;4998686;28;20243;-88
2022/12/22 16:12:52;;;;;;;24.97;18.00;;;5.80;93.10;;;;;;4998633;28;20367;-88
2022/12/22 16:15:19;;;;;;;35.77;19.63;;;5.80;93.10;;;;;;4998427;28;20279;-88
2022/12/22 16:17:45;;;;;;;31.83;19.47;;;5.80;93.10;;;;;;4998396;28;20186;-88
2022/12/22 16:20:10;;;;;;;28.83;17.83;;;5.80;93.00;;;;;;4998603;28;20181;-88
2022/12/22 16:22:38;;;;;;;29.43;17.43;;;5.80;93.10;;;;;;4998462;28;20177;-88
2022/12/22 16:25:11;;;;;;;30.43;16.90;;;5.80;93.10;;;;;;4998191;28;20209;-88
2022/12/22 16:27:37;;;;;;;23.87;15.57;;;5.70;93.10;;;;;;5015942;28;20224;-88
2022/12/22 16:30:03;;;;;;;26.93;16.97;;;5.70;93.10;;;;;;4998233;28;20623;-87
2022/12/22 16:32:31;;;;;;;28.47;17.40;;;5.80;93.20;;;;;;4998219;28;20218;-88
2022/12/22 16:35:17;;;;;;;32.27;16.53;;;5.80;93.20;;;;;;4998234;28;20198;-88
2022/12/22 16:37:43;;;;;;;26.50;16.30;;;5.80;93.20;;;;;;4998197;28;20258;-87
2022/12/22 16:40:12;;;;;;;34.17;16.93;;;5.80;93.20;;;;;;5015735;28;20227;-92
2022/12/22 16:42:41;;;;;;;32.07;17.23;;;5.80;93.20;;;;;;4998397;28;20185;-91
2022/12/22 16:45:20;;;;;;;28.47;16.60;;;5.90;93.20;;;;;;5000433;28;20228;-93
2022/12/22 16:47:46;;;;;;;27.43;17.53;;;5.90;93.20;;;;;;4998887;28;20169;-93
2022/12/22 16:50:21;;;;;;;31.20;16.07;;;6.00;93.30;;;;;;5003790;28;20181;-94
2022/12/22 16:52:48;;;;;;;31.77;17.07;;;6.00;93.30;;;;;;4998807;28;20590;-92
2022/12/22 16:55:21;;;;;;;25.40;16.23;;;6.00;93.20;;;;;;4998507;28;20689;-92
2022/12/22 16:57:47;;;;;;;28.60;16.87;;;6.10;93.20;;;;;;4998155;28;20586;-92
2022/12/22 17:00:34;;;;;;;31.80;17.13;;;6.10;93.30;;;;;;4999101;28;20181;-93
2022/12/22 17:03:11;;;;;;;29.93;17.03;;;6.10;93.30;;;;;;4998639;28;20204;-93
2022/12/22 17:05:41;;;;;;;22.67;15.97;;;6.20;93.30;;;;;;5000619;28;20220;-91
2022/12/22 17:08:13;;;;;;;31.77;18.10;;;6.20;93.30;;;;;;4998493;28;20268;-92
2022/12/22 17:10:38;;;;;;;25.00;16.63;;;6.20;93.20;;;;;;4998381;28;20264;-92
2022/12/22 17:13:04;;;;;;;26.87;16.60;;;6.20;93.20;;;;;;4997798;28;20213;-92
2022/12/22 17:15:29;;;;;;;29.43;16.90;;;6.20;93.20;;;;;;4997453;28;20208;-91
2022/12/22 17:17:55;;;;;;;34.63;17.33;;;6.20;93.30;;;;;;4996723;28;20236;-91
2022/12/22 17:20:25;;;;;;;27.03;14.93;;;6.30;93.30;;;;;;4997412;28;20607;-91
2022/12/22 17:23:29;;;;;;;36.90;17.90;;;6.20;93.30;;;;;;4997335;28;20213;-91
2022/12/22 17:25:57;;;;;;;33.50;17.37;;;6.30;93.30;;;;;;4997372;28;20289;-90
2022/12/22 17:28:29;;;;;;;35.00;18.53;;;6.30;93.30;;;;;;5014642;28;20205;-91
2022/12/22 17:30:54;;;;;;;24.47;16.90;;;6.30;93.30;;;;;;4998084;28;20157;-91
2022/12/22 17:33:20;;;;;;;25.73;16.30;;;6.30;93.30;;;;;;5014683;28;20170;-90
2022/12/22 17:35:46;;;;;;;30.93;17.20;;;6.30;93.40;;;;;;5014810;28;20188;-91
2022/12/22 17:38:17;;;;;;;26.50;17.70;;;6.30;93.40;;;;;;4997668;28;20655;-91
2022/12/22 17:40:44;;;;;;;28.43;18.50;;;6.30;93.40;;;;;;4997578;28;20189;-92